createdAt,value
2018-02-25T00:00:30.360Z,-0.60
2018-02-25T00:02:57.423Z,-0.60
2018-02-25T00:05:24.483Z,-0.60
2018-02-25T00:07:51.556Z,-0.60
2018-02-25T00:10:18.604Z,-0.60
2018-02-25T00:12:45.668Z,-0.60
2018-02-25T00:15:12.730Z,-0.70
2018-02-25T00:17:39.714Z,-0.70
2018-02-25T00:20:08.199Z,-0.80
2018-02-25T00:22:35.243Z,-0.80
2018-02-25T00:25:02.299Z,-0.80
2018-02-25T00:27:29.276Z,-0.80
2018-02-25T00:29:56.258Z,-0.80
2018-02-25T00:32:23.284Z,-0.80
2018-02-25T00:34:50.331Z,-0.80
2018-02-25T00:37:17.307Z,-0.90
2018-02-25T00:39:44.295Z,-0.90
2018-02-25T00:42:12.053Z,-0.90
2018-02-25T00:44:39.030Z,-0.90
2018-02-25T00:47:06.798Z,-0.90
2018-02-25T00:49:33.828Z,-0.90
2018-02-25T00:52:00.791Z,-0.90
2018-02-25T00:54:27.770Z,-0.90
2018-02-25T00:56:54.748Z,-1.00
2018-02-25T00:59:22.498Z,-1.00
2018-02-25T01:01:49.471Z,-1.10
2018-02-25T01:04:16.487Z,-1.10
2018-02-25T01:06:43.555Z,-1.10
2018-02-25T01:09:10.543Z,-1.10
2018-02-25T01:11:38.288Z,-1.10
2018-02-25T01:14:05.264Z,-1.10
2018-02-25T01:16:32.234Z,-1.10
2018-02-25T01:18:59.215Z,-1.10
2018-02-25T01:21:26.959Z,-1.10
2018-02-25T01:23:53.944Z,-1.10
2018-02-25T01:26:21.771Z,-1.20
2018-02-25T01:28:48.835Z,-1.20
2018-02-25T01:31:15.863Z,-1.20
2018-02-25T01:33:42.855Z,-1.20
2018-02-25T01:36:09.906Z,-1.20
2018-02-25T01:38:36.971Z,-1.20
2018-02-25T01:41:03.948Z,-1.30
2018-02-25T01:43:30.922Z,-1.30
2018-02-25T01:45:57.907Z,-1.30
2018-02-25T01:48:25.655Z,-1.40
2018-02-25T01:50:58.703Z,-1.40
2018-02-25T01:53:25.675Z,-1.40
2018-02-25T01:55:52.656Z,-1.40
2018-02-25T01:58:19.636Z,-1.40
2018-02-25T02:00:46.615Z,-1.50
2018-02-25T02:03:14.431Z,-1.50
2018-02-25T02:05:41.491Z,-1.50
2018-02-25T02:08:08.551Z,-1.50
2018-02-25T02:10:35.613Z,-1.50
2018-02-25T02:13:02.587Z,-1.50
2018-02-25T02:15:29.576Z,-1.50
2018-02-25T02:17:56.550Z,-1.60
2018-02-25T02:20:24.366Z,-1.60
2018-02-25T02:22:51.422Z,-1.60
2018-02-25T02:25:18.487Z,-1.60
2018-02-25T02:27:45.464Z,-1.60
2018-02-25T02:30:12.443Z,-1.70
2018-02-25T02:32:39.415Z,-1.70
2018-02-25T02:35:07.244Z,-1.70
2018-02-25T02:37:34.299Z,-1.80
2018-02-25T02:40:01.279Z,-1.80
2018-02-25T02:42:28.324Z,-1.80
2018-02-25T02:44:55.380Z,-1.80
2018-02-25T02:47:22.354Z,-1.80
2018-02-25T02:49:49.335Z,-1.80
2018-02-25T02:52:16.312Z,-1.80
2018-02-25T02:54:44.064Z,-1.90
2018-02-25T02:57:11.090Z,-1.90
2018-02-25T02:59:38.142Z,-1.90
2018-02-25T03:02:05.119Z,-1.90
2018-02-25T03:04:32.104Z,-1.90
2018-02-25T03:06:59.830Z,-2.00
2018-02-25T03:09:26.902Z,-2.00
2018-02-25T03:11:53.876Z,-2.00
2018-02-25T03:14:20.856Z,-2.10
2018-02-25T03:16:47.827Z,-2.10
2018-02-25T03:19:15.654Z,-2.10
2018-02-25T03:21:42.742Z,-2.20
2018-02-25T03:24:09.723Z,-2.20
2018-02-25T03:26:37.462Z,-2.20
2018-02-25T03:29:04.448Z,-2.20
2018-02-25T03:31:31.474Z,-2.20
2018-02-25T03:33:58.473Z,-2.20
2018-02-25T03:36:25.490Z,-2.20
2018-02-25T03:38:52.651Z,-2.30
2018-02-25T03:41:19.712Z,-2.30
2018-02-25T03:43:46.772Z,-2.30
2018-02-25T03:46:13.751Z,-2.30
2018-02-25T03:48:40.787Z,-2.30
2018-02-25T03:51:07.771Z,-2.40
2018-02-25T03:53:35.510Z,-2.40
2018-02-25T03:56:02.491Z,-2.40
2018-02-25T03:58:29.471Z,-2.40
2018-02-25T04:00:56.449Z,-2.40
2018-02-25T04:03:24.187Z,-2.50
2018-02-25T04:05:51.172Z,-2.50
2018-02-25T04:08:18.144Z,-2.50
2018-02-25T04:10:45.891Z,-2.60
2018-02-25T04:13:12.868Z,-2.60
2018-02-25T04:15:39.842Z,-2.60
2018-02-25T04:18:07.588Z,-2.60
2018-02-25T04:20:34.566Z,-2.60
2018-02-25T04:23:02.307Z,-2.60
2018-02-25T04:25:29.354Z,-2.60
2018-02-25T04:27:56.430Z,-2.60
2018-02-25T04:30:23.472Z,-2.70
2018-02-25T04:32:50.537Z,-2.70
2018-02-25T04:35:17.591Z,-2.70
2018-02-25T04:37:44.661Z,-2.70
2018-02-25T04:40:11.797Z,-2.70
2018-02-25T04:42:39.519Z,-2.80
2018-02-25T04:45:06.555Z,-2.80
2018-02-25T04:47:33.611Z,-2.80
2018-02-25T04:50:00.672Z,-2.80
2018-02-25T04:52:27.647Z,-2.80
2018-02-25T04:54:54.651Z,-2.90
2018-02-25T04:57:22.392Z,-2.90
2018-02-25T04:59:49.371Z,-2.90
2018-02-25T05:02:17.111Z,-2.90
2018-02-25T05:04:44.091Z,-2.90
2018-02-25T05:07:11.117Z,-3.00
2018-02-25T05:09:38.101Z,-2.90
2018-02-25T05:12:05.072Z,-3.00
2018-02-25T05:14:32.055Z,-3.00
2018-02-25T05:16:59.803Z,-3.00
2018-02-25T05:19:26.775Z,-3.10
2018-02-25T05:21:54.517Z,-3.10
2018-02-25T05:24:21.496Z,-3.10
2018-02-25T05:26:48.523Z,-3.10
2018-02-25T05:29:15.495Z,-3.10
2018-02-25T05:31:42.539Z,-3.20
2018-02-25T05:34:09.519Z,-3.20
2018-02-25T05:36:36.499Z,-3.20
2018-02-25T05:39:03.475Z,-3.30
2018-02-25T05:41:31.291Z,-3.30
2018-02-25T05:43:58.356Z,-3.30
2018-02-25T05:46:25.338Z,-3.30
2018-02-25T05:48:52.311Z,-3.30
2018-02-25T05:51:19.300Z,-3.30
2018-02-25T05:53:46.288Z,-3.30
2018-02-25T05:56:13.267Z,-3.30
2018-02-25T05:58:40.299Z,-3.30
2018-02-25T06:01:07.279Z,-3.40
2018-02-25T06:03:34.319Z,-3.40
2018-02-25T06:06:01.299Z,-3.40
2018-02-25T06:08:28.271Z,-3.40
2018-02-25T06:10:56.118Z,-3.50
2018-02-25T06:13:23.087Z,-3.50
2018-02-25T06:15:50.136Z,-3.50
2018-02-25T06:18:17.107Z,-3.50
2018-02-25T06:20:44.091Z,-3.50
2018-02-25T06:23:11.063Z,-3.50
2018-02-25T06:25:38.809Z,-3.50
2018-02-25T06:28:06.685Z,-3.60
2018-02-25T06:30:33.724Z,-3.60
2018-02-25T06:33:00.727Z,-3.60
2018-02-25T06:35:27.703Z,-3.60
2018-02-25T06:37:55.444Z,-3.60
2018-02-25T06:40:22.479Z,-3.70
2018-02-25T06:42:49.450Z,-3.60
2018-02-25T06:45:16.503Z,-3.60
2018-02-25T06:47:43.559Z,-3.60
2018-02-25T06:50:10.551Z,-3.60
2018-02-25T06:52:38.296Z,-3.60
2018-02-25T06:55:05.275Z,-3.60
2018-02-25T06:57:32.248Z,-3.60
2018-02-25T07:00:00.089Z,-3.60
2018-02-25T07:02:27.061Z,-3.60
2018-02-25T07:04:54.108Z,-3.50
2018-02-25T07:07:21.079Z,-3.50
2018-02-25T07:09:48.055Z,-3.50
2018-02-25T07:12:16.623Z,-3.50
2018-02-25T07:14:43.595Z,-3.50
2018-02-25T07:17:10.575Z,-3.40
2018-02-25T07:19:37.547Z,-3.40
2018-02-25T07:22:05.334Z,-3.30
2018-02-25T07:24:32.275Z,-3.30
2018-02-25T07:27:00.027Z,-3.20
2018-02-25T07:29:27.059Z,-3.20
2018-02-25T07:31:54.119Z,-3.20
2018-02-25T07:34:21.179Z,-3.10
2018-02-25T07:36:48.170Z,-3.00
2018-02-25T07:39:15.200Z,-3.00
2018-02-25T07:41:42.186Z,-2.90
2018-02-25T07:44:09.216Z,-2.90
2018-02-25T07:46:36.199Z,-2.80
2018-02-25T07:49:03.176Z,-2.80
2018-02-25T07:51:30.214Z,-2.80
2018-02-25T07:53:57.140Z,-2.80
2018-02-25T07:56:24.119Z,-2.70
2018-02-25T07:58:51.096Z,-2.60
2018-02-25T08:01:18.127Z,-2.60
2018-02-25T08:03:45.187Z,-2.50
2018-02-25T08:06:12.183Z,-2.50
2018-02-25T08:08:39.155Z,-2.40
2018-02-25T08:11:06.908Z,-2.30
2018-02-25T08:13:33.926Z,-2.30
2018-02-25T08:16:00.899Z,-2.20
2018-02-25T08:18:27.964Z,-2.10
2018-02-25T08:20:55.014Z,-2.10
2018-02-25T08:23:21.992Z,-2.00
2018-02-25T08:25:48.966Z,-2.00
2018-02-25T08:28:15.939Z,-1.90
2018-02-25T08:30:43.775Z,-1.80
2018-02-25T08:33:10.826Z,-1.80
2018-02-25T08:35:38.703Z,-1.80
2018-02-25T08:38:05.767Z,-1.70
2018-02-25T08:40:32.840Z,-1.70
2018-02-25T08:42:59.815Z,-1.70
2018-02-25T08:45:26.796Z,-1.60
2018-02-25T08:47:54.531Z,-1.50
2018-02-25T08:50:21.588Z,-1.50
2018-02-25T08:52:48.642Z,-1.40
2018-02-25T08:55:15.712Z,-1.40
2018-02-25T08:57:43.000Z,-1.30
2018-02-25T09:00:09.984Z,-1.30
2018-02-25T09:02:37.732Z,-1.20
2018-02-25T09:05:04.703Z,-1.20
2018-02-25T09:07:32.467Z,-1.10
2018-02-25T09:09:59.446Z,-1.20
2018-02-25T09:12:26.454Z,-1.10
2018-02-25T09:14:53.427Z,-1.00
2018-02-25T09:17:20.412Z,-0.90
2018-02-25T09:19:48.257Z,-0.80
2018-02-25T09:22:15.238Z,-0.80
2018-02-25T09:24:42.270Z,-0.60
2018-02-25T09:27:09.256Z,-0.60
2018-02-25T09:29:36.283Z,-0.50
2018-02-25T09:32:03.267Z,-0.40
2018-02-25T09:34:30.240Z,-0.30
2018-02-25T09:36:58.088Z,-0.10
2018-02-25T09:39:25.143Z,-0.10
2018-02-25T09:41:52.119Z,0.00
2018-02-25T09:44:19.083Z,0.20
2018-02-25T09:46:46.062Z,0.30
2018-02-25T09:49:13.158Z,0.50
2018-02-25T09:51:40.878Z,0.70
2018-02-25T09:54:07.847Z,0.70
2018-02-25T09:56:34.870Z,0.90
2018-02-25T09:59:01.935Z,1.00
2018-02-25T10:01:28.991Z,1.10
2018-02-25T10:03:56.051Z,1.30
2018-02-25T10:06:23.106Z,1.40
2018-02-25T10:08:50.180Z,1.50
2018-02-25T10:11:17.151Z,1.60
2018-02-25T10:13:44.191Z,1.60
2018-02-25T10:16:11.168Z,1.80
2018-02-25T10:18:38.139Z,1.80
2018-02-25T10:21:05.111Z,1.90
2018-02-25T10:23:32.851Z,2.10
2018-02-25T10:25:59.827Z,2.10
2018-02-25T10:28:26.786Z,2.10
2018-02-25T10:30:53.816Z,2.10
2018-02-25T10:33:20.783Z,2.20
2018-02-25T10:35:47.835Z,2.30
2018-02-25T10:38:14.806Z,2.50
2018-02-25T10:40:41.788Z,2.80
2018-02-25T10:43:08.812Z,3.30
2018-02-25T10:45:35.779Z,4.60
2018-02-25T10:48:02.768Z,8.00
2018-02-25T10:50:29.788Z,12.00
2018-02-25T10:52:56.850Z,14.30
2018-02-25T10:55:23.819Z,13.30
2018-02-25T10:57:50.823Z,12.70
2018-02-25T11:00:24.509Z,15.10
2018-02-25T11:02:51.540Z,15.10
2018-02-25T11:05:18.599Z,15.70
2018-02-25T11:07:45.579Z,14.40
2018-02-25T11:10:12.665Z,12.20
2018-02-25T11:12:39.675Z,9.90
2018-02-25T11:15:06.734Z,8.10
2018-02-25T11:17:33.707Z,6.90
2018-02-25T11:20:00.760Z,6.00
2018-02-25T11:22:27.754Z,5.40
2018-02-25T11:24:54.741Z,5.10
2018-02-25T11:27:21.714Z,4.80
2018-02-25T11:29:48.685Z,4.70
2018-02-25T11:32:15.748Z,4.50
2018-02-25T11:34:42.808Z,4.40
2018-02-25T11:37:09.787Z,4.30
2018-02-25T11:39:36.760Z,4.30
2018-02-25T11:42:03.783Z,4.40
2018-02-25T11:44:30.844Z,4.30
2018-02-25T11:46:57.815Z,4.40
2018-02-25T11:49:24.783Z,4.40
2018-02-25T11:51:51.763Z,4.50
2018-02-25T11:54:18.736Z,4.60
2018-02-25T11:56:46.552Z,4.90
2018-02-25T11:59:13.523Z,4.90
2018-02-25T12:01:40.495Z,5.10
2018-02-25T12:04:07.531Z,5.30
2018-02-25T12:06:34.503Z,5.40
2018-02-25T12:09:01.551Z,5.50
2018-02-25T12:11:28.523Z,5.50
2018-02-25T12:13:55.574Z,5.50
2018-02-25T12:16:22.631Z,5.50
2018-02-25T12:18:49.608Z,5.60
2018-02-25T12:21:16.579Z,5.70
2018-02-25T12:23:43.603Z,5.80
2018-02-25T12:26:10.664Z,6.00
2018-02-25T12:28:37.651Z,6.10
2018-02-25T12:31:04.629Z,6.20
2018-02-25T12:33:32.460Z,6.30
2018-02-25T12:35:59.515Z,6.30
2018-02-25T12:38:26.491Z,6.40
2018-02-25T12:40:53.455Z,6.50
2018-02-25T12:43:20.499Z,6.60
2018-02-25T12:45:47.471Z,6.90
2018-02-25T12:48:14.448Z,7.30
2018-02-25T12:50:41.423Z,8.20
2018-02-25T12:53:09.163Z,12.40
2018-02-25T12:55:36.143Z,12.40
2018-02-25T12:58:03.116Z,14.40
2018-02-25T13:00:30.948Z,16.80
2018-02-25T13:02:57.914Z,16.70
2018-02-25T13:05:24.950Z,17.50
2018-02-25T13:07:51.922Z,17.60
2018-02-25T13:10:18.980Z,18.20
2018-02-25T13:12:45.960Z,18.10
2018-02-25T13:15:13.211Z,18.40
2018-02-25T13:17:40.259Z,17.90
2018-02-25T13:20:07.315Z,18.30
2018-02-25T13:22:34.375Z,17.80
2018-02-25T13:25:02.121Z,18.10
2018-02-25T13:27:29.854Z,18.60
2018-02-25T13:29:56.840Z,18.60
2018-02-25T13:32:24.575Z,18.50
2018-02-25T13:34:51.544Z,18.40
2018-02-25T13:37:18.586Z,18.50
2018-02-25T13:39:45.639Z,17.90
2018-02-25T13:42:12.703Z,18.10
2018-02-25T13:44:39.674Z,18.30
2018-02-25T13:47:06.654Z,18.90
2018-02-25T13:49:33.660Z,18.00
2018-02-25T13:52:00.630Z,18.40
2018-02-25T13:54:27.636Z,18.40
2018-02-25T13:56:54.655Z,18.40
2018-02-25T13:59:21.627Z,17.60
2018-02-25T14:01:48.607Z,17.60
2018-02-25T14:04:15.635Z,17.50
2018-02-25T14:06:42.687Z,17.30
2018-02-25T14:09:09.660Z,16.70
2018-02-25T14:11:36.717Z,16.40
2018-02-25T14:14:03.692Z,16.20
2018-02-25T14:16:30.656Z,16.40
2018-02-25T14:18:57.639Z,16.30
2018-02-25T14:21:25.380Z,15.80
2018-02-25T14:23:52.375Z,15.70
2018-02-25T14:26:19.337Z,15.10
2018-02-25T14:28:47.163Z,15.40
2018-02-25T14:31:14.128Z,15.30
2018-02-25T14:33:41.118Z,14.90
2018-02-25T14:36:08.074Z,14.80
2018-02-25T14:38:35.955Z,13.90
2018-02-25T14:41:02.966Z,13.90
2018-02-25T14:43:29.953Z,13.30
2018-02-25T14:45:56.923Z,13.10
2018-02-25T14:48:23.928Z,12.60
2018-02-25T14:50:51.217Z,12.10
2018-02-25T14:53:18.272Z,11.10
2018-02-25T14:55:45.343Z,10.00
2018-02-25T14:58:12.331Z,8.70
2018-02-25T15:00:40.163Z,6.90
2018-02-25T15:03:07.143Z,6.80
2018-02-25T15:05:34.107Z,6.20
2018-02-25T15:08:01.092Z,5.80
2018-02-25T15:10:28.058Z,5.40
2018-02-25T15:12:55.802Z,5.00
2018-02-25T15:15:24.279Z,5.00
2018-02-25T15:17:51.379Z,5.00
2018-02-25T15:20:18.435Z,5.10
2018-02-25T15:22:45.392Z,5.10
2018-02-25T15:25:12.362Z,5.00
2018-02-25T15:27:40.117Z,4.60
2018-02-25T15:30:07.076Z,4.60
2018-02-25T15:32:34.056Z,4.30
2018-02-25T15:35:01.847Z,3.80
2018-02-25T15:37:28.842Z,3.80
2018-02-25T15:39:55.823Z,3.60
2018-02-25T15:42:23.697Z,3.10
2018-02-25T15:44:50.667Z,3.10
2018-02-25T15:47:17.692Z,3.00
2018-02-25T15:49:44.664Z,2.80
2018-02-25T15:52:11.710Z,2.70
2018-02-25T15:54:38.668Z,2.60
2018-02-25T15:57:05.649Z,2.60
2018-02-25T15:59:32.685Z,2.50
2018-02-25T16:01:59.742Z,2.50
2018-02-25T16:04:26.803Z,2.40
2018-02-25T16:06:53.861Z,2.40
2018-02-25T16:09:20.840Z,2.30
2018-02-25T16:11:47.907Z,2.20
2018-02-25T16:14:14.948Z,2.10
2018-02-25T16:16:41.916Z,2.00
2018-02-25T16:19:08.963Z,1.90
2018-02-25T16:21:35.927Z,1.90
2018-02-25T16:24:02.970Z,1.80
2018-02-25T16:26:29.941Z,1.80
2018-02-25T16:28:56.930Z,1.70
2018-02-25T16:31:23.950Z,1.70
2018-02-25T16:33:51.016Z,1.70
2018-02-25T16:36:17.978Z,1.60
2018-02-25T16:38:44.970Z,1.60
2018-02-25T16:41:11.939Z,1.50
2018-02-25T16:43:39.687Z,1.40
2018-02-25T16:46:06.659Z,1.40
2018-02-25T16:48:33.636Z,1.30
2018-02-25T16:51:01.469Z,1.30
2018-02-25T16:53:28.434Z,1.20
2018-02-25T16:55:55.478Z,1.20
2018-02-25T16:58:22.450Z,1.10
2018-02-25T17:00:49.427Z,1.10
2018-02-25T17:03:16.408Z,1.00
2018-02-25T17:05:44.267Z,0.90
2018-02-25T17:08:11.279Z,0.90
2018-02-25T17:10:38.252Z,0.80
2018-02-25T17:13:05.255Z,0.80
2018-02-25T17:15:33.025Z,0.70
2018-02-25T17:18:00.005Z,0.70
2018-02-25T17:20:27.820Z,0.70
2018-02-25T17:22:54.891Z,0.70
2018-02-25T17:25:21.855Z,0.70
2018-02-25T17:27:48.904Z,0.60
2018-02-25T17:30:15.955Z,0.60
2018-02-25T17:32:43.032Z,0.50
2018-02-25T17:35:09.995Z,0.50
2018-02-25T17:37:37.300Z,0.50
2018-02-25T17:40:05.044Z,0.40
2018-02-25T17:42:32.019Z,0.40
2018-02-25T17:44:59.072Z,0.40
2018-02-25T17:47:26.109Z,0.40
2018-02-25T17:49:53.224Z,0.40
2018-02-25T17:52:20.974Z,0.40
2018-02-25T17:54:47.963Z,0.30
2018-02-25T17:57:15.705Z,0.40
2018-02-25T17:59:42.748Z,0.30
2018-02-25T18:02:09.723Z,0.40
2018-02-25T18:04:36.755Z,0.30
2018-02-25T18:07:03.827Z,0.30
2018-02-25T18:09:30.879Z,0.30
2018-02-25T18:11:57.939Z,0.30
2018-02-25T18:14:25.008Z,0.40
2018-02-25T18:16:51.999Z,0.30
2018-02-25T18:19:19.040Z,0.30
2018-02-25T18:21:46.590Z,0.30
2018-02-25T18:24:13.656Z,0.30
2018-02-25T18:26:40.623Z,0.30
2018-02-25T18:29:07.679Z,0.30
2018-02-25T18:31:34.732Z,0.20
2018-02-25T18:34:01.739Z,0.20
2018-02-25T18:36:29.480Z,0.10
2018-02-25T18:38:56.461Z,0.10
2018-02-25T18:41:24.939Z,0.00
2018-02-25T18:43:51.924Z,0.00
2018-02-25T18:46:18.900Z,0.10
2018-02-25T18:48:46.711Z,0.00
2018-02-25T18:51:13.771Z,0.00
2018-02-25T18:53:40.752Z,0.00
2018-02-25T18:56:07.723Z,0.00
2018-02-25T18:58:34.698Z,0.00
2018-02-25T19:01:02.528Z,0.00
2018-02-25T19:03:29.507Z,0.00
2018-02-25T19:05:56.543Z,-0.10
2018-02-25T19:08:23.608Z,-0.10
2018-02-25T19:10:50.671Z,-0.10
2018-02-25T19:13:17.727Z,-0.10
2018-02-25T19:15:44.791Z,-0.10
2018-02-25T19:18:12.892Z,-0.10
2018-02-25T19:20:39.843Z,-0.10
2018-02-25T19:23:06.819Z,-0.10
2018-02-25T19:25:33.799Z,-0.10
2018-02-25T19:28:01.635Z,-0.20
2018-02-25T19:30:28.623Z,-0.20
2018-02-25T19:32:55.595Z,-0.20
2018-02-25T19:35:23.351Z,-0.30
2018-02-25T19:37:56.231Z,-0.30
2018-02-25T19:40:28.955Z,-0.30
2018-02-25T19:42:56.696Z,-0.40
2018-02-25T19:45:23.679Z,-0.40
2018-02-25T19:47:50.651Z,-0.40
2018-02-25T19:50:18.478Z,-0.40
2018-02-25T19:52:45.464Z,-0.50
2018-02-25T19:55:12.499Z,-0.50
2018-02-25T19:57:39.495Z,-0.50
2018-02-25T20:00:06.511Z,-0.50
2018-02-25T20:02:33.579Z,-0.50
2018-02-25T20:05:00.647Z,-0.50
2018-02-25T20:07:27.725Z,-0.50
2018-02-25T20:09:54.679Z,-0.50
2018-02-25T20:12:21.656Z,-0.50
2018-02-25T20:14:48.675Z,-0.50
2018-02-25T20:17:15.730Z,-0.50
2018-02-25T20:19:42.711Z,-0.50
2018-02-25T20:22:09.686Z,-0.50
2018-02-25T20:24:38.195Z,-0.60
2018-02-25T20:27:05.940Z,-0.60
2018-02-25T20:29:32.979Z,-0.60
2018-02-25T20:31:59.956Z,-0.60
2018-02-25T20:34:26.939Z,-0.70
2018-02-25T20:36:54.675Z,-0.70
2018-02-25T20:39:21.726Z,-0.70
2018-02-25T20:41:48.799Z,-0.70
2018-02-25T20:44:15.779Z,-0.70
2018-02-25T20:46:42.760Z,-0.70
2018-02-25T20:49:10.495Z,-0.80
2018-02-25T20:51:37.475Z,-0.80
2018-02-25T20:54:04.449Z,-0.80
2018-02-25T20:56:31.427Z,-0.80
2018-02-25T20:58:58.402Z,-0.80
2018-02-25T21:01:25.479Z,-0.80
2018-02-25T21:03:52.450Z,-0.80
2018-02-25T21:06:19.499Z,-0.80
2018-02-25T21:08:46.472Z,-0.80
2018-02-25T21:11:13.524Z,-0.80
2018-02-25T21:13:40.579Z,-0.80
2018-02-25T21:16:07.635Z,-0.80
2018-02-25T21:18:34.695Z,-0.80
2018-02-25T21:21:01.676Z,-0.80
2018-02-25T21:23:28.651Z,-0.90
2018-02-25T21:25:55.674Z,-0.90
2018-02-25T21:28:22.731Z,-0.90
2018-02-25T21:30:49.716Z,-0.90
2018-02-25T21:33:16.692Z,-1.00
2018-02-25T21:35:43.712Z,-1.00
2018-02-25T21:38:10.688Z,-1.00
2018-02-25T21:40:37.676Z,-1.10
2018-02-25T21:43:05.411Z,-1.20
2018-02-25T21:45:32.398Z,-1.20
2018-02-25T21:47:59.376Z,-1.20
2018-02-25T21:50:27.119Z,-1.20
2018-02-25T21:52:54.155Z,-1.30
2018-02-25T21:55:21.138Z,-1.20
2018-02-25T21:57:53.902Z,-1.20
2018-02-25T22:00:26.652Z,-1.20
2018-02-25T22:03:00.155Z,-1.30
2018-02-25T22:05:27.991Z,-1.30
2018-02-25T22:07:54.967Z,-1.30
2018-02-25T22:10:21.955Z,-1.30
2018-02-25T22:12:48.967Z,-1.30
2018-02-25T22:15:16.028Z,-1.30
2018-02-25T22:17:43.012Z,-1.30
2018-02-25T22:20:09.991Z,-1.30
2018-02-25T22:22:37.828Z,-1.40
2018-02-25T22:25:04.811Z,-1.40
2018-02-25T22:27:31.836Z,-1.40
2018-02-25T22:29:58.811Z,-1.40
2018-02-25T22:32:25.859Z,-1.40
2018-02-25T22:34:52.918Z,-1.50
2018-02-25T22:37:19.910Z,-1.50
2018-02-25T22:39:46.882Z,-1.50
2018-02-25T22:42:13.870Z,-1.50
2018-02-25T22:44:40.851Z,-1.50
2018-02-25T22:47:07.831Z,-1.60
2018-02-25T22:49:34.803Z,-1.60
2018-02-25T22:52:01.847Z,-1.60
2018-02-25T22:54:28.888Z,-1.60
2018-02-25T22:56:55.870Z,-1.60
2018-02-25T22:59:22.853Z,-1.70
2018-02-25T23:01:50.682Z,-1.70
2018-02-25T23:04:17.747Z,-1.70
2018-02-25T23:06:44.726Z,-1.70
2018-02-25T23:09:11.845Z,-1.70
2018-02-25T23:11:39.634Z,-1.80
2018-02-25T23:14:06.610Z,-1.80
2018-02-25T23:16:33.663Z,-1.80
2018-02-25T23:19:00.630Z,-1.80
2018-02-25T23:21:27.682Z,-1.80
2018-02-25T23:23:54.663Z,-1.80
2018-02-25T23:26:21.696Z,-1.80
2018-02-25T23:28:48.662Z,-1.90
2018-02-25T23:31:15.714Z,-1.90
2018-02-25T23:33:42.706Z,-1.90
2018-02-25T23:36:09.679Z,-1.90
2018-02-25T23:38:37.423Z,-2.00
2018-02-25T23:41:04.461Z,-2.00
2018-02-25T23:43:31.438Z,-2.00
2018-02-25T23:45:58.414Z,-2.00
2018-02-25T23:48:25.435Z,-2.00
2018-02-25T23:50:52.423Z,-2.10
2018-02-25T23:53:19.469Z,-2.10
2018-02-25T23:55:46.444Z,-2.10
2018-02-25T23:58:13.431Z,-2.10
